LESA Airport Information

Runway Information
Runway 03 Length 8202 ft width 197 ft
Elevation 2595 ft Threshold 0 ft Heading 28
Runway 21 Length 8202 ft Width 197 ft
Elevation 2586 ft Threshold 0 ft Heading 208
Runway 08 Length 6594 ft width 400 ft
Elevation 2587 ft Threshold 0 ft Heading 74
Runway 26 Length 6594 ft Width 400 ft
Elevation 2588 ft Threshold 0 ft Heading 254
Airport Frequencies
Type APP Name APP Frequency 124.4 MHZ
Type GND Name GND Frequency 121.85 MHZ
Type TWR Name TWR Frequency 139.3 MHZ
Airport Navaids
Type VOR-DME Name Salamanca Frequency 112200 KHZ
Type NDB Name Salamanca Frequency 399 KHZ
Type NDB Name Salamanca Frequency 423 KHZ
Type TACAN Name Salamanca Frequency 113300 KHZ
Airport Weather Information & NOTAM
ADDS - METARS form results

(0620 UTC 19 August 2018)
 
METAR text: LESA 190600Z 00000KT CAVOK 12/09 Q1022
Conditions at: LESA (SALAMANCA (CIV/M, ES) observed 0600 UTC 19 August 2018
Temperature: 12.0°C (54°F)
Dewpoint: 9.0°C (48°F) [RH = 82%]
Pressure (altimeter): 30.18 inches Hg (1022.0 mb)
Winds: calm
Visibility: 6 or more miles (10+ km)
Ceiling: ceiling and visibility are OK
Clouds: unknown
Weather: no significant weather observed at this time

METAR text: LESA 190530Z AUTO 00000KT 9999 NCD 12/09 Q1022
Conditions at: LESA (SALAMANCA (CIV/M, ES) observed 0530 UTC 19 August 2018
Temperature: 12.0°C (54°F)
Dewpoint: 9.0°C (48°F) [RH = 82%]
Pressure (altimeter): 30.18 inches Hg (1022.0 mb)
Winds: calm
Visibility: 6 or more miles (10+ km)
Ceiling: at least 12,000 feet AGL
Clouds: sky clear below 12,000 feet AGL
Weather: no significant weather observed at this time